createdAt,value
2019-05-02T00:01:05.171Z,44.70
2019-05-02T00:06:09.331Z,44.58
2019-05-02T00:11:12.959Z,41.28
2019-05-02T00:16:15.924Z,45.23
2019-05-02T00:21:19.049Z,43.28
2019-05-02T00:26:24.552Z,43.80
2019-05-02T00:31:26.360Z,44.15
2019-05-02T00:36:48.472Z,37.60
2019-05-02T00:41:51.137Z,39.95
2019-05-02T00:46:53.801Z,38.53
2019-05-02T00:51:56.751Z,40.90
2019-05-02T00:57:00.851Z,36.13
2019-05-02T01:02:05.437Z,38.63
2019-05-02T01:07:08.941Z,41.33
2019-05-02T01:12:11.621Z,44.93
2019-05-02T01:17:14.279Z,42.43
2019-05-02T01:22:17.280Z,44.23
2019-05-02T01:27:20.028Z,43.13
2019-05-02T01:32:25.254Z,42.78
2019-05-02T01:37:27.082Z,45.78
2019-05-02T01:42:39.592Z,39.80
2019-05-02T01:47:35.802Z,42.50
2019-05-02T01:52:38.584Z,41.70
2019-05-02T01:57:44.649Z,44.80
2019-05-02T02:02:46.085Z,45.17
2019-05-02T02:07:50.753Z,43.63
2019-05-02T02:13:03.202Z,43.55
2019-05-02T02:17:57.589Z,46.08
2019-05-02T02:23:00.563Z,45.35
2019-05-02T02:28:03.280Z,41.53
2019-05-02T02:33:09.420Z,47.80
2019-05-02T02:38:10.756Z,42.27
2019-05-02T02:43:32.786Z,38.15
2019-05-02T02:48:17.769Z,45.38
2019-05-02T02:53:24.140Z,46.58
2019-05-02T02:58:28.291Z,44.93
2019-05-02T03:03:34.861Z,42.20
2019-05-02T03:08:44.651Z,46.00
2019-05-02T03:13:51.047Z,42.23
2019-05-02T03:18:44.352Z,49.03
2019-05-02T03:23:47.363Z,42.78
2019-05-02T03:28:57.109Z,44.20
2019-05-02T03:34:00.115Z,44.85
2019-05-02T03:38:59.797Z,46.60
2019-05-02T03:44:11.129Z,47.03
2019-05-02T03:49:09.602Z,46.40
2019-05-02T03:54:11.325Z,48.68
2019-05-02T03:59:14.048Z,51.37
2019-05-02T04:04:20.644Z,45.90
2019-05-02T04:09:38.947Z,47.05
2019-05-02T04:14:38.803Z,43.60
2019-05-02T04:19:42.700Z,49.63
2019-05-02T04:24:54.535Z,47.00
2019-05-02T04:29:49.782Z,44.77
2019-05-02T04:34:55.792Z,43.28
2019-05-02T04:40:00.717Z,45.40
2019-05-02T04:45:21.336Z,46.08
2019-05-02T04:50:07.651Z,51.55
2019-05-02T04:55:19.947Z,50.12
2019-05-02T05:00:18.616Z,50.00
2019-05-02T05:05:25.625Z,55.25
2019-05-02T05:10:27.698Z,47.75
2019-05-02T05:15:38.265Z,48.30
2019-05-02T05:20:37.549Z,48.10
2019-05-02T05:25:38.841Z,47.05
2019-05-02T05:30:45.372Z,52.35
2019-05-02T05:35:48.835Z,49.40
2019-05-02T05:40:51.110Z,49.73
2019-05-02T05:46:01.328Z,49.23
2019-05-02T05:50:58.145Z,50.90
2019-05-02T05:56:02.506Z,52.23
2019-05-02T06:01:09.890Z,49.45
2019-05-02T06:06:10.263Z,53.70
2019-05-02T06:11:14.954Z,53.40
2019-05-02T06:16:18.484Z,50.55
2019-05-02T06:21:21.164Z,51.18
2019-05-02T06:26:23.886Z,48.52
2019-05-02T06:31:26.533Z,41.90
2019-05-02T06:36:31.990Z,39.73
2019-05-02T06:41:33.871Z,51.25
2019-05-02T06:46:36.530Z,54.93
2019-05-02T06:51:39.585Z,49.15
2019-05-02T06:56:43.086Z,54.75
2019-05-02T07:01:47.100Z,54.53
2019-05-02T07:06:58.294Z,51.42
2019-05-02T07:11:57.467Z,55.50
2019-05-02T07:16:58.674Z,51.58
2019-05-02T07:22:04.250Z,56.40
2019-05-02T07:27:05.848Z,47.58
2019-05-02T07:32:08.529Z,55.23
2019-05-02T07:37:12.670Z,53.13
2019-05-02T07:42:15.911Z,55.45
2019-05-02T07:47:18.591Z,52.98
2019-05-02T07:52:21.383Z,45.12
2019-05-02T07:57:25.127Z,51.02
2019-05-02T08:02:28.812Z,49.63
2019-05-02T08:07:34.394Z,48.48
2019-05-02T08:12:35.919Z,43.52
2019-05-02T08:17:38.563Z,43.15
2019-05-02T08:22:44.051Z,44.50
2019-05-02T08:27:45.692Z,44.03
2019-05-02T08:32:48.411Z,49.98
2019-05-02T08:37:51.080Z,47.65
2019-05-02T08:42:53.775Z,48.75
2019-05-02T08:48:00.191Z,45.20
2019-05-02T08:53:00.941Z,43.55
2019-05-02T08:58:06.535Z,41.95
2019-05-02T09:03:08.364Z,36.28
2019-05-02T09:08:14.327Z,40.55
2019-05-02T09:13:23.674Z,39.95
2019-05-02T09:18:22.254Z,36.20
2019-05-02T09:23:27.490Z,31.95
2019-05-02T09:28:28.934Z,33.13
2019-05-02T09:33:32.220Z,34.65
2019-05-02T09:38:35.136Z,33.58
2019-05-02T09:43:39.228Z,37.70
2019-05-02T09:48:42.705Z,39.15
2019-05-02T09:53:45.809Z,37.45
2019-05-02T09:58:49.346Z,43.60
2019-05-02T10:03:52.225Z,41.80
2019-05-02T10:08:54.909Z,43.52
2019-05-02T10:13:57.649Z,45.50
2019-05-02T10:19:05.581Z,46.55
2019-05-02T10:24:04.855Z,51.37
2019-05-02T10:29:07.650Z,57.90
2019-05-02T10:34:16.300Z,62.17
2019-05-02T10:39:15.843Z,57.90
2019-05-02T10:44:18.809Z,59.10
2019-05-02T10:49:22.628Z,56.00
2019-05-02T10:54:28.033Z,61.18
2019-05-02T10:59:29.902Z,62.38
2019-05-02T11:04:32.588Z,61.25
2019-05-02T11:09:35.335Z,60.03
2019-05-02T11:14:38.151Z,60.10
2019-05-02T11:19:42.013Z,60.28
2019-05-02T11:24:44.817Z,59.18
2019-05-02T11:29:47.843Z,62.03
2019-05-02T11:34:52.291Z,60.55
2019-05-02T11:40:00.388Z,57.80
2019-05-02T11:44:59.274Z,55.98
2019-05-02T11:50:02.465Z,65.05
2019-05-02T11:55:06.217Z,56.18
2019-05-02T12:00:12.397Z,56.58
2019-05-02T12:05:15.462Z,61.98
2019-05-02T12:10:18.190Z,58.80
2019-05-02T12:15:21.670Z,60.10
2019-05-02T12:20:28.583Z,59.03
2019-05-02T12:25:28.993Z,52.15
2019-05-02T12:30:36.023Z,50.23
2019-05-02T12:35:36.137Z,52.23
2019-05-02T12:40:38.855Z,57.80
2019-05-02T12:45:42.173Z,46.98
2019-05-02T12:50:45.162Z,38.78
2019-05-02T12:55:47.822Z,38.15
2019-05-02T13:00:52.868Z,36.60
2019-05-02T13:05:55.286Z,35.50
2019-05-02T13:11:02.050Z,35.43
2019-05-02T13:16:03.745Z,40.52
2019-05-02T13:21:08.210Z,40.52
2019-05-02T13:26:19.590Z,36.58
2019-05-02T13:31:16.128Z,35.48
2019-05-02T13:36:52.085Z,36.90
2019-05-02T13:41:54.783Z,32.63
2019-05-02T13:46:57.592Z,30.80
2019-05-02T13:52:02.413Z,28.30
2019-05-02T13:57:05.182Z,26.87
2019-05-02T14:02:09.379Z,24.37
2019-05-02T14:07:17.262Z,24.40
2019-05-02T14:12:16.510Z,25.08
2019-05-02T14:17:19.230Z,20.43
2019-05-02T14:22:22.644Z,20.80
2019-05-02T14:27:26.621Z,19.35
2019-05-02T14:32:29.318Z,19.25
2019-05-02T14:37:32.257Z,18.80
2019-05-02T14:42:35.008Z,17.95
2019-05-02T14:47:37.669Z,18.15
2019-05-02T14:52:42.204Z,16.97
2019-05-02T14:57:44.780Z,16.67
2019-05-02T15:02:49.122Z,16.35
2019-05-02T15:07:51.956Z,16.60
2019-05-02T15:12:59.733Z,16.00
2019-05-02T15:17:59.220Z,15.75
2019-05-02T15:23:02.603Z,16.25
2019-05-02T15:28:05.410Z,16.95
2019-05-02T15:33:08.073Z,15.43
2019-05-02T15:38:14.470Z,15.15
2019-05-02T15:43:15.245Z,16.12
2019-05-02T15:48:25.543Z,18.92
2019-05-02T15:53:22.362Z,16.07
2019-05-02T15:58:27.771Z,16.30
2019-05-02T16:03:29.535Z,14.28
2019-05-02T16:08:32.621Z,14.53
2019-05-02T16:13:35.328Z,12.28
2019-05-02T16:18:41.080Z,11.57
2019-05-02T16:23:42.487Z,10.48
2019-05-02T16:28:45.547Z,10.55
2019-05-02T16:33:49.725Z,13.60
2019-05-02T16:38:52.708Z,16.23
2019-05-02T16:43:55.385Z,18.52
2019-05-02T16:48:58.063Z,22.77
2019-05-02T16:54:04.924Z,25.70
2019-05-02T16:59:05.197Z,24.80
2019-05-02T17:04:07.869Z,23.73
2019-05-02T17:09:11.910Z,26.40
2019-05-02T17:14:14.729Z,26.55
2019-05-02T17:19:17.402Z,24.95
2019-05-02T17:24:22.655Z,26.70
2019-05-02T17:29:24.436Z,33.75
2019-05-02T17:34:30.780Z,29.67
2019-05-02T17:39:31.636Z,31.97
2019-05-02T17:44:34.436Z,36.03
2019-05-02T17:49:37.198Z,28.90
2019-05-02T17:54:40.022Z,35.35
2019-05-02T17:59:42.789Z,36.60
2019-05-02T18:04:46.546Z,37.33
2019-05-02T18:09:49.908Z,37.40
2019-05-02T18:14:58.966Z,36.13
2019-05-02T18:20:02.221Z,34.83
2019-05-02T18:25:03.202Z,36.33
2019-05-02T18:30:07.813Z,36.23
2019-05-02T18:35:11.726Z,38.38
2019-05-02T18:40:20.177Z,33.92
2019-05-02T18:45:27.372Z,29.48
2019-05-02T18:50:52.663Z,30.88
2019-05-02T18:55:56.830Z,29.37
2019-05-02T19:00:59.970Z,26.73
2019-05-02T19:06:03.648Z,26.15
2019-05-02T19:11:12.044Z,25.60
2019-05-02T19:16:12.798Z,22.42
2019-05-02T19:21:15.297Z,20.85
2019-05-02T19:26:18.011Z,20.23
2019-05-02T19:31:22.391Z,20.00
2019-05-02T19:36:27.703Z,16.10
2019-05-02T19:41:29.726Z,15.48
2019-05-02T19:46:38.568Z,12.95
2019-05-02T19:51:37.028Z,13.48
2019-05-02T19:56:45.348Z,12.75
2019-05-02T20:01:44.519Z,11.40
2019-05-02T20:06:47.252Z,11.70
2019-05-02T20:11:52.023Z,11.95
2019-05-02T20:16:55.946Z,12.98
2019-05-02T20:22:02.826Z,12.05
2019-05-02T20:27:03.136Z,15.20
2019-05-02T20:32:05.812Z,14.75
2019-05-02T20:37:08.891Z,16.27
2019-05-02T20:42:12.126Z,17.02
2019-05-02T20:47:18.090Z,15.18
2019-05-02T20:52:21.767Z,15.48
2019-05-02T20:57:24.671Z,15.53
2019-05-02T21:02:27.451Z,15.72
2019-05-02T21:07:30.347Z,15.08
2019-05-02T21:12:33.197Z,14.40
2019-05-02T21:17:36.379Z,15.63
2019-05-02T21:22:39.162Z,15.23
2019-05-02T21:27:42.027Z,14.43
2019-05-02T21:32:44.814Z,14.03
2019-05-02T21:37:47.611Z,15.53
2019-05-02T21:42:51.813Z,13.13
2019-05-02T21:47:54.739Z,14.25
2019-05-02T21:52:57.506Z,13.03
2019-05-02T21:58:00.290Z,12.65
2019-05-02T22:03:03.080Z,13.85
2019-05-02T22:08:05.936Z,12.70
2019-05-02T22:13:08.718Z,11.28
2019-05-02T22:18:11.517Z,13.28
2019-05-02T22:23:14.300Z,13.50
2019-05-02T22:28:17.423Z,12.65
2019-05-02T22:33:22.091Z,12.35
2019-05-02T22:38:24.630Z,12.73
2019-05-02T22:43:27.404Z,13.70
2019-05-02T22:48:31.894Z,13.38
2019-05-02T22:53:34.913Z,14.63
2019-05-02T22:58:38.266Z,13.70
2019-05-02T23:03:41.870Z,13.03
2019-05-02T23:08:44.724Z,12.43
2019-05-02T23:13:47.828Z,14.60
2019-05-02T23:18:52.034Z,11.33
2019-05-02T23:23:55.274Z,13.22
2019-05-02T23:28:58.040Z,15.05
2019-05-02T23:34:02.120Z,14.65
2019-05-02T23:39:08.341Z,14.28
2019-05-02T23:44:12.327Z,15.32
2019-05-02T23:49:15.294Z,13.70
2019-05-02T23:54:18.079Z,13.98
2019-05-02T23:59:22.335Z,14.38
